Quicksburg, Virginia
Current Conditions -  °F | °C
As of 5:55 AM on Monday 20 Oct 2014 (Local Time) from K8W2 Reporting Station
Clear Clear  
Wind Chill: 33°   Ceiling: Unl
Heat Index: 33°   Visibility: 10mi
Dew Point: 33°   Wind: 0mph
Humidity: 98%   Direction: NA
Pressure: 30.08"   Gusts: NA
Location:  38.69°N, 78.68°W
Report Text: K8W2 200955Z AUTO 00000KT 10SM CLR 01/00 A3008 RMK AO1 T00070004
Loading
Personal Weather Stations






























Interactive Weather Map
Tropical Storm Tracking
New forecast layout! Learn more

10-Day Weather Forecast

Advertisements
Track Severe Weather on mobile